createdAt,value
2023-02-19T00:00:44.177Z,102766.38
2023-02-19T00:03:12.445Z,102772.44
2023-02-19T00:05:44.197Z,102772.63
2023-02-19T00:08:14.836Z,102772.84
2023-02-19T00:11:04.836Z,102781.78
2023-02-19T00:13:39.447Z,102767.19
2023-02-19T00:16:10.592Z,102775.34
2023-02-19T00:18:42.327Z,102780.47
2023-02-19T00:21:11.311Z,102746.38
2023-02-19T00:23:39.428Z,102787.84
2023-02-19T00:26:18.814Z,102785.94
2023-02-19T00:28:50.675Z,102783.88
2023-02-19T00:31:19.827Z,102794.22
2023-02-19T00:33:49.384Z,102799.44
2023-02-19T00:36:20.808Z,102800.56
2023-02-19T00:38:48.919Z,102796.97
2023-02-19T00:41:21.405Z,102805.13
2023-02-19T00:43:50.963Z,102795.47
2023-02-19T00:46:28.622Z,102793.00
2023-02-19T00:48:56.899Z,102798.13
2023-02-19T00:51:25.765Z,102791.09
2023-02-19T00:53:53.857Z,102813.28
2023-02-19T00:56:23.292Z,102799.94
2023-02-19T00:58:51.564Z,102808.84
2023-02-19T01:01:19.705Z,102821.03
2023-02-19T01:03:49.582Z,102815.00
2023-02-19T01:06:18.946Z,102811.41
2023-02-19T01:08:47.652Z,102814.41
2023-02-19T01:11:16.048Z,102792.03
2023-02-19T01:13:46.776Z,102803.06
2023-02-19T01:16:15.745Z,102826.75
2023-02-19T01:18:46.088Z,102830.25
2023-02-19T01:21:17.599Z,102828.09
2023-02-19T01:23:46.801Z,102833.84
2023-02-19T01:26:20.830Z,102841.56
2023-02-19T01:28:52.650Z,102836.41
2023-02-19T01:31:21.904Z,102830.94
2023-02-19T01:33:54.739Z,102835.19
2023-02-19T01:36:30.605Z,102846.25
2023-02-19T01:39:01.562Z,102847.97
2023-02-19T01:41:29.880Z,102849.28
2023-02-19T01:44:27.751Z,102861.22
2023-02-19T01:47:00.371Z,102863.63
2023-02-19T01:49:31.358Z,102860.56
2023-02-19T01:52:02.536Z,102856.00
2023-02-19T01:54:33.513Z,102855.31
2023-02-19T01:57:02.351Z,102858.50
2023-02-19T01:59:30.390Z,102850.34
2023-02-19T02:02:02.242Z,102840.75
2023-02-19T02:04:32.355Z,102849.03
2023-02-19T02:07:02.107Z,102858.41
2023-02-19T02:09:48.942Z,102865.13
2023-02-19T02:12:17.275Z,102865.69
2023-02-19T02:14:46.612Z,102876.88
2023-02-19T02:17:31.498Z,102868.91
2023-02-19T02:20:24.188Z,102887.00
2023-02-19T02:22:56.414Z,102879.13
2023-02-19T02:25:48.006Z,102886.16
2023-02-19T02:28:23.861Z,102884.44
2023-02-19T02:30:56.319Z,102870.41
2023-02-19T02:33:33.205Z,102879.13
2023-02-19T02:36:04.777Z,102886.16
2023-02-19T02:38:34.513Z,102884.44
2023-02-19T02:41:03.911Z,102896.03
2023-02-19T02:43:33.099Z,102896.16
2023-02-19T02:46:04.786Z,102889.13
2023-02-19T02:48:41.955Z,102882.72
2023-02-19T02:51:17.077Z,102875.72
2023-02-19T02:54:26.504Z,102876.56
2023-02-19T02:56:55.748Z,102880.28
2023-02-19T02:59:26.235Z,102881.44
2023-02-19T03:02:14.533Z,102891.31
2023-02-19T03:05:17.001Z,102900.97
2023-02-19T03:07:48.861Z,102892.16
2023-02-19T03:10:19.838Z,102897.19
2023-02-19T03:13:06.735Z,102903.28
2023-02-19T03:15:55.671Z,102890.84
2023-02-19T03:18:43.530Z,102895.06
2023-02-19T03:21:11.772Z,102906.91
2023-02-19T03:24:01.226Z,102898.00
2023-02-19T03:26:32.183Z,102906.59
2023-02-19T03:29:17.081Z,102917.25
2023-02-19T03:31:46.580Z,102903.00
2023-02-19T03:34:18.545Z,102898.53
2023-02-19T03:36:49.584Z,102898.44
2023-02-19T03:39:22.647Z,102913.03
2023-02-19T03:41:56.230Z,102918.34
2023-02-19T03:44:34.947Z,102927.47
2023-02-19T03:47:05.015Z,102924.69
2023-02-19T03:49:41.794Z,102943.81
2023-02-19T03:52:14.748Z,102930.75
2023-02-19T03:54:49.823Z,102927.34
2023-02-19T03:57:20.361Z,102916.75
2023-02-19T03:59:51.015Z,102916.94
2023-02-19T04:02:23.462Z,102922.47
2023-02-19T04:04:56.405Z,102891.72
2023-02-19T04:07:24.615Z,102917.72
2023-02-19T04:09:52.546Z,102914.69
2023-02-19T04:12:22.375Z,102925.16
2023-02-19T04:14:53.061Z,102932.75
2023-02-19T04:17:25.498Z,102941.47
2023-02-19T04:19:55.728Z,102951.72
2023-02-19T04:22:24.394Z,102945.63
2023-02-19T04:24:53.218Z,102958.34
2023-02-19T04:27:21.248Z,102944.84
2023-02-19T04:29:49.454Z,102936.69
2023-02-19T04:32:19.585Z,102926.81
2023-02-19T04:34:49.835Z,102931.19
2023-02-19T04:37:19.180Z,102919.03
2023-02-19T04:39:48.583Z,102925.59
2023-02-19T04:42:16.810Z,102935.56
2023-02-19T04:44:47.552Z,102937.47
2023-02-19T04:47:17.956Z,102942.81
2023-02-19T04:49:46.813Z,102948.13
2023-02-19T04:52:15.990Z,102955.88
2023-02-19T04:54:48.073Z,102952.34
2023-02-19T04:57:16.652Z,102958.75
2023-02-19T04:59:44.665Z,102946.59
2023-02-19T05:02:14.015Z,102944.88
2023-02-19T05:04:45.900Z,102942.91
2023-02-19T05:07:13.846Z,102954.63
2023-02-19T05:09:43.335Z,102976.56
2023-02-19T05:12:12.746Z,102970.09
2023-02-19T05:14:40.736Z,102979.59
2023-02-19T05:17:12.078Z,102967.34
2023-02-19T05:19:40.094Z,102973.91
2023-02-19T05:22:08.085Z,102978.19
2023-02-19T05:24:36.027Z,102978.19
2023-02-19T05:27:04.052Z,102977.41
2023-02-19T05:29:33.492Z,102982.81
2023-02-19T05:32:01.497Z,102985.47
2023-02-19T05:34:29.481Z,102998.47
2023-02-19T05:36:57.469Z,103001.78
2023-02-19T05:39:25.466Z,103005.00
2023-02-19T05:41:53.518Z,102987.16
2023-02-19T05:44:26.375Z,102999.28
2023-02-19T05:46:55.908Z,102976.53
2023-02-19T05:49:24.020Z,102992.09
2023-02-19T05:51:52.020Z,102995.81
2023-02-19T05:54:20.162Z,103000.28
2023-02-19T05:56:48.099Z,103000.53
2023-02-19T05:59:17.111Z,103013.09
2023-02-19T06:01:45.588Z,103011.88
2023-02-19T06:04:15.551Z,103011.28
2023-02-19T06:06:45.931Z,103011.66
2023-02-19T06:09:14.029Z,103021.34
2023-02-19T06:11:43.455Z,103007.13
2023-02-19T06:14:12.605Z,103012.53
2023-02-19T06:16:44.238Z,103016.25
2023-02-19T06:19:14.587Z,103041.56
2023-02-19T06:21:42.571Z,103038.31
2023-02-19T06:24:10.935Z,103023.94
2023-02-19T06:26:39.084Z,103046.88
2023-02-19T06:29:07.184Z,103036.34
2023-02-19T06:31:35.193Z,103032.19
2023-02-19T06:34:06.217Z,103028.09
2023-02-19T06:36:38.919Z,103020.31
2023-02-19T06:39:06.961Z,103021.56
2023-02-19T06:41:35.023Z,103028.22
2023-02-19T06:44:03.260Z,103031.22
2023-02-19T06:46:31.871Z,103042.31
2023-02-19T06:49:01.493Z,103032.53
2023-02-19T06:51:32.562Z,103043.38
2023-02-19T06:54:08.376Z,103037.28
2023-02-19T06:56:37.630Z,103037.38
2023-02-19T06:59:06.299Z,103022.09
2023-02-19T07:01:37.213Z,103024.94
2023-02-19T07:04:05.807Z,103030.63
2023-02-19T07:06:34.164Z,103016.09
2023-02-19T07:09:02.234Z,103009.34
2023-02-19T07:11:34.848Z,103008.75
2023-02-19T07:14:03.740Z,102999.22
2023-02-19T07:16:31.751Z,103034.13
2023-02-19T07:19:00.183Z,103041.31
2023-02-19T07:21:30.133Z,103024.31
2023-02-19T07:24:12.373Z,103046.44
2023-02-19T07:26:41.923Z,103044.66
2023-02-19T07:29:10.800Z,103030.53
2023-02-19T07:31:40.900Z,103031.38
2023-02-19T07:34:08.952Z,103027.28
2023-02-19T07:36:38.093Z,103030.81
2023-02-19T07:39:09.938Z,103042.06
2023-02-19T07:41:41.421Z,103027.09
2023-02-19T07:44:13.530Z,103025.13
2023-02-19T07:46:41.609Z,103016.09
2023-02-19T07:49:09.911Z,103015.09
2023-02-19T07:51:39.923Z,103021.09
2023-02-19T07:54:08.527Z,103013.00
2023-02-19T07:56:38.790Z,103026.06
2023-02-19T07:59:14.417Z,103025.84
2023-02-19T08:02:11.915Z,103028.72
2023-02-19T08:04:40.331Z,103028.59
2023-02-19T08:07:08.419Z,103013.81
2023-02-19T08:09:41.770Z,103019.13
2023-02-19T08:12:28.647Z,103020.75
2023-02-19T08:14:58.828Z,103026.06
2023-02-19T08:17:33.498Z,103038.19
2023-02-19T08:20:02.811Z,103024.13
2023-02-19T08:22:30.889Z,103025.84
2023-02-19T08:25:03.764Z,103025.00
2023-02-19T08:27:31.900Z,103029.38
2023-02-19T08:30:00.243Z,103022.25
2023-02-19T08:32:30.850Z,103035.44
2023-02-19T08:35:01.295Z,103037.16
2023-02-19T08:37:29.324Z,103038.97
2023-02-19T08:39:57.294Z,103031.25
2023-02-19T08:42:25.663Z,103040.06
2023-02-19T08:44:53.860Z,103034.97
2023-02-19T08:47:23.292Z,103033.06
2023-02-19T08:49:56.067Z,103032.78
2023-02-19T08:52:24.344Z,103033.84
2023-02-19T08:54:52.375Z,103023.44
2023-02-19T08:57:22.058Z,103021.91
2023-02-19T08:59:50.257Z,103028.38
2023-02-19T09:02:18.661Z,103031.03
2023-02-19T09:04:47.340Z,103037.28
2023-02-19T09:07:19.127Z,103038.81
2023-02-19T09:09:48.815Z,103043.75
2023-02-19T09:12:16.777Z,103055.88
2023-02-19T09:14:44.769Z,103065.28
2023-02-19T09:17:14.230Z,103054.56
2023-02-19T09:19:45.622Z,103053.78
2023-02-19T09:22:13.781Z,103062.44
2023-02-19T09:24:51.301Z,103052.28
2023-02-19T09:27:21.062Z,103078.41
2023-02-19T09:29:51.933Z,103072.41
2023-02-19T09:32:20.431Z,103075.84
2023-02-19T09:34:48.496Z,103087.31
2023-02-19T09:37:18.548Z,103094.25
2023-02-19T09:39:48.273Z,103089.59
2023-02-19T09:42:17.855Z,103088.00
2023-02-19T09:44:48.994Z,103097.28
2023-02-19T09:47:20.217Z,103121.03
2023-02-19T09:49:52.287Z,103116.44
2023-02-19T09:52:26.515Z,103119.94
2023-02-19T09:54:59.277Z,103131.94
2023-02-19T09:57:29.574Z,103136.06
2023-02-19T10:00:02.005Z,103137.91
2023-02-19T10:02:35.488Z,103125.81
2023-02-19T10:05:07.629Z,103130.19
2023-02-19T10:07:42.198Z,103146.16
2023-02-19T10:10:41.554Z,103149.22
2023-02-19T10:13:28.366Z,103143.34
2023-02-19T10:16:00.618Z,103149.97
2023-02-19T10:18:41.651Z,103142.22
2023-02-19T10:21:19.929Z,103151.56
2023-02-19T10:23:48.247Z,103172.25
2023-02-19T10:26:26.407Z,103166.50
2023-02-19T10:28:55.656Z,103174.41
2023-02-19T10:31:34.811Z,103182.91
2023-02-19T10:34:12.134Z,103156.81
2023-02-19T10:36:49.295Z,103175.25
2023-02-19T10:39:42.339Z,103185.81
2023-02-19T10:42:19.242Z,103170.00
2023-02-19T10:44:48.740Z,103187.94
2023-02-19T10:47:18.576Z,103203.34
2023-02-19T10:49:49.103Z,103202.41
2023-02-19T10:52:19.215Z,103199.63
2023-02-19T10:54:47.239Z,103200.78
2023-02-19T10:57:30.077Z,103194.13
2023-02-19T11:00:02.001Z,103189.13
2023-02-19T11:02:30.884Z,103190.56
2023-02-19T11:05:08.532Z,103191.72
2023-02-19T11:07:37.244Z,103192.13
2023-02-19T11:10:09.806Z,103172.28
2023-02-19T11:12:39.717Z,103199.84
2023-02-19T11:15:21.304Z,103194.28
2023-02-19T11:17:55.980Z,103196.63
2023-02-19T11:20:27.494Z,103184.22
2023-02-19T11:22:58.685Z,103194.09
2023-02-19T11:25:29.624Z,103199.88
2023-02-19T11:28:38.050Z,103199.56
2023-02-19T11:31:23.187Z,103207.78
2023-02-19T11:34:00.164Z,103202.88
2023-02-19T11:36:30.886Z,103194.31
2023-02-19T11:39:00.149Z,103181.75
2023-02-19T11:41:42.455Z,103178.78
2023-02-19T11:44:25.632Z,103167.25
2023-02-19T11:46:59.061Z,103165.34
2023-02-19T11:49:31.438Z,103171.59
2023-02-19T11:52:10.378Z,103172.88
2023-02-19T11:54:51.094Z,103172.78
2023-02-19T11:57:29.858Z,103170.34
2023-02-19T12:00:14.136Z,103170.13
2023-02-19T12:03:12.192Z,103170.22
2023-02-19T12:05:53.209Z,103184.53
2023-02-19T12:09:14.200Z,103180.66
2023-02-19T12:12:02.920Z,103174.13
2023-02-19T12:15:06.330Z,103181.56
2023-02-19T12:17:45.735Z,103150.38
2023-02-19T12:20:20.117Z,103165.13
2023-02-19T12:22:52.201Z,103161.63
2023-02-19T12:25:34.361Z,103168.34
2023-02-19T12:28:31.449Z,103158.31
2023-02-19T12:31:11.901Z,103147.53
2023-02-19T12:34:02.197Z,103141.78
2023-02-19T12:36:37.964Z,103142.56
2023-02-19T12:39:08.806Z,103125.72
2023-02-19T12:41:41.034Z,103130.81
2023-02-19T12:44:20.801Z,103103.53
2023-02-19T12:46:50.940Z,103113.19
2023-02-19T12:49:35.912Z,103108.47
2023-02-19T12:52:12.457Z,103097.38
2023-02-19T12:54:42.455Z,103102.53
2023-02-19T12:57:13.206Z,103107.94
2023-02-19T12:59:45.929Z,103085.16
2023-02-19T13:02:20.833Z,103097.19
2023-02-19T13:04:59.184Z,103088.03
2023-02-19T13:07:31.653Z,103085.47
2023-02-19T13:10:06.794Z,103084.28
2023-02-19T13:12:40.497Z,103077.53
2023-02-19T13:15:14.750Z,103078.91
2023-02-19T13:17:47.481Z,103082.03
2023-02-19T13:20:21.613Z,103072.84
2023-02-19T13:23:10.974Z,103086.50
2023-02-19T13:25:45.948Z,103089.06
2023-02-19T13:28:29.949Z,103076.69
2023-02-19T13:31:15.568Z,103078.63
2023-02-19T13:33:48.290Z,103076.50
2023-02-19T13:36:20.604Z,103076.72
2023-02-19T13:39:09.043Z,103076.91
2023-02-19T13:41:45.470Z,103096.34
2023-02-19T13:44:18.472Z,103086.97
2023-02-19T13:46:50.303Z,103090.78
2023-02-19T13:49:46.271Z,103076.06
2023-02-19T13:52:43.886Z,103072.00
2023-02-19T13:55:54.755Z,103068.41
2023-02-19T13:58:55.961Z,103069.22
2023-02-19T14:02:15.885Z,103063.75
2023-02-19T14:04:54.288Z,103059.84
2023-02-19T14:08:02.946Z,103057.28
2023-02-19T14:11:08.591Z,103045.66
2023-02-19T14:14:07.119Z,103051.72
2023-02-19T14:16:51.207Z,103038.84
2023-02-19T14:19:55.360Z,103030.75
2023-02-19T14:22:52.805Z,103030.84
2023-02-19T14:25:39.311Z,103031.69
2023-02-19T14:28:36.976Z,103040.00
2023-02-19T14:31:12.436Z,103038.91
2023-02-19T14:33:45.707Z,103033.16
2023-02-19T14:36:21.240Z,103029.75
2023-02-19T14:38:52.401Z,103029.31
2023-02-19T14:41:20.441Z,103031.25
2023-02-19T14:43:51.712Z,103020.78
2023-02-19T14:46:27.789Z,103019.59
2023-02-19T14:48:57.277Z,103018.22
2023-02-19T14:51:31.035Z,103025.66
2023-02-19T14:54:00.463Z,102998.47
2023-02-19T14:56:37.269Z,103008.63
2023-02-19T14:59:24.889Z,103007.88
2023-02-19T15:01:57.489Z,103006.63
2023-02-19T15:04:27.585Z,102984.97
2023-02-19T15:06:57.083Z,102995.88
2023-02-19T15:09:38.301Z,102997.78
2023-02-19T15:12:16.941Z,102991.50
2023-02-19T15:14:56.448Z,102990.47
2023-02-19T15:17:30.406Z,102992.78
2023-02-19T15:19:58.662Z,102997.78
2023-02-19T15:25:16.357Z,102974.44
2023-02-19T15:27:45.123Z,102993.41
2023-02-19T15:30:22.963Z,102994.59
2023-02-19T15:32:54.930Z,103002.06
2023-02-19T15:35:25.140Z,102985.50
2023-02-19T15:37:53.437Z,102986.97
2023-02-19T15:40:29.153Z,102963.94
2023-02-19T15:43:05.901Z,102995.09
2023-02-19T15:45:39.959Z,102992.19
2023-02-19T15:48:14.299Z,102994.75
2023-02-19T15:50:44.089Z,102991.50
2023-02-19T15:53:49.894Z,102983.41
2023-02-19T15:57:15.855Z,102996.94
2023-02-19T15:59:45.754Z,103004.94
2023-02-19T16:02:22.985Z,102996.25
2023-02-19T16:05:33.763Z,103003.06
2023-02-19T16:08:21.415Z,103005.31
2023-02-19T16:10:57.922Z,103000.22
2023-02-19T16:17:52.693Z,103013.78
2023-02-19T16:21:54.956Z,103018.69
2023-02-19T16:24:30.631Z,103008.19
2023-02-19T16:27:31.882Z,103013.28
2023-02-19T16:30:00.410Z,103003.44
2023-02-19T16:32:28.779Z,103000.25
2023-02-19T16:39:39.808Z,103004.91
2023-02-19T16:46:51.292Z,102995.94
2023-02-19T16:49:19.603Z,102992.19
2023-02-19T16:51:54.825Z,102991.84
2023-02-19T16:54:25.587Z,102988.31
2023-02-19T16:57:25.772Z,102983.66
2023-02-19T17:00:04.240Z,102996.47
2023-02-19T17:02:34.412Z,102989.78
2023-02-19T17:05:05.805Z,102999.53
2023-02-19T17:07:34.946Z,102997.44
2023-02-19T17:10:03.241Z,103006.28
2023-02-19T17:18:03.621Z,103004.94
2023-02-19T17:20:39.041Z,102998.59
2023-02-19T17:23:08.476Z,102993.63
2023-02-19T17:25:43.186Z,102996.69
2023-02-19T17:28:35.731Z,102998.59
2023-02-19T17:31:15.090Z,102991.75
2023-02-19T17:33:59.432Z,103005.59
2023-02-19T17:36:30.629Z,103001.25
2023-02-19T17:39:01.724Z,103001.44
2023-02-19T17:41:34.182Z,102994.63
2023-02-19T17:44:18.912Z,103006.25
2023-02-19T17:46:47.644Z,103009.38
2023-02-19T17:49:17.994Z,103006.63
2023-02-19T17:51:49.391Z,102993.63
2023-02-19T17:54:17.474Z,103000.16
2023-02-19T17:56:54.961Z,103003.69
2023-02-19T17:59:47.310Z,102999.31
2023-02-19T18:02:29.384Z,103011.28
2023-02-19T18:04:59.736Z,103006.69
2023-02-19T18:07:41.751Z,103017.16
2023-02-19T18:10:13.723Z,103017.16
2023-02-19T18:12:41.953Z,103018.66
2023-02-19T18:15:19.442Z,103018.50
2023-02-19T18:17:50.539Z,103018.28
2023-02-19T18:20:25.819Z,103022.28
2023-02-19T18:22:54.812Z,103008.84
2023-02-19T18:25:23.332Z,102999.16
2023-02-19T18:27:51.511Z,102973.25
2023-02-19T18:30:24.761Z,102993.53
2023-02-19T18:32:54.708Z,103000.28
2023-02-19T18:35:26.123Z,103004.66
2023-02-19T18:38:03.737Z,102995.94
2023-02-19T18:40:33.747Z,103004.47
2023-02-19T18:43:08.213Z,103006.19
2023-02-19T18:45:38.031Z,103008.25
2023-02-19T18:48:06.250Z,103018.88
2023-02-19T18:50:37.936Z,103012.91
2023-02-19T18:53:06.061Z,103000.56
2023-02-19T18:55:37.158Z,102995.25
2023-02-19T18:58:07.241Z,103011.97
2023-02-19T19:00:37.928Z,103014.53
2023-02-19T19:03:13.891Z,103010.81
2023-02-19T19:05:45.661Z,103006.66
2023-02-19T19:08:14.456Z,103006.91
2023-02-19T19:10:45.918Z,103015.72
2023-02-19T19:13:28.127Z,103005.22
2023-02-19T19:15:56.232Z,102973.25
2023-02-19T19:18:28.276Z,102999.06
2023-02-19T19:21:02.055Z,102978.66
2023-02-19T19:23:33.234Z,103002.84
2023-02-19T19:26:01.515Z,102999.78
2023-02-19T19:28:45.945Z,102999.22
2023-02-19T19:31:17.859Z,102994.38
2023-02-19T19:33:54.505Z,103011.47
2023-02-19T19:36:26.311Z,103001.78
2023-02-19T19:38:58.830Z,102999.91
2023-02-19T19:41:35.490Z,102974.66
2023-02-19T19:44:05.258Z,102996.75
2023-02-19T19:46:33.369Z,102990.03
2023-02-19T19:49:04.132Z,103005.00
2023-02-19T19:51:32.872Z,102976.94
2023-02-19T19:54:10.361Z,102993.94
2023-02-19T19:56:41.825Z,102990.97
2023-02-19T19:59:13.602Z,102989.09
2023-02-19T20:01:49.766Z,102987.38
2023-02-19T20:04:21.560Z,103005.03
2023-02-19T20:06:49.662Z,103002.19
2023-02-19T20:09:20.048Z,103009.31
2023-02-19T20:11:49.183Z,103020.78
2023-02-19T20:14:17.314Z,103024.38
2023-02-19T20:16:51.471Z,103017.38
2023-02-19T20:19:28.897Z,103026.09
2023-02-19T20:21:57.271Z,103021.81
2023-02-19T20:24:31.043Z,103014.31
2023-02-19T20:27:00.122Z,103015.66
2023-02-19T20:29:29.069Z,103019.84
2023-02-19T20:31:59.565Z,103013.75
2023-02-19T20:34:31.362Z,102996.13
2023-02-19T20:36:59.606Z,103011.50
2023-02-19T20:39:39.939Z,103014.31
2023-02-19T20:42:08.734Z,102982.44
2023-02-19T20:44:37.827Z,102997.75
2023-02-19T20:47:06.209Z,102999.53
2023-02-19T20:49:35.927Z,102998.59
2023-02-19T20:52:06.713Z,102994.22
2023-02-19T20:54:35.972Z,102984.63
2023-02-19T20:57:12.419Z,102982.75
2023-02-19T20:59:50.242Z,102997.06
2023-02-19T21:02:29.254Z,103003.53
2023-02-19T21:04:58.752Z,102960.44
2023-02-19T21:07:34.302Z,102982.81
2023-02-19T21:10:07.110Z,102996.66
2023-02-19T21:12:36.648Z,103000.28
2023-02-19T21:15:05.327Z,103002.34
2023-02-19T21:17:38.573Z,103012.97
2023-02-19T21:20:12.181Z,103001.69
2023-02-19T21:22:42.695Z,102998.06
2023-02-19T21:25:12.398Z,103000.84
2023-02-19T21:27:40.378Z,102998.06
2023-02-19T21:30:10.850Z,102991.25
2023-02-19T21:32:38.897Z,102984.22
2023-02-19T21:35:09.740Z,102986.03
2023-02-19T21:37:42.999Z,102992.41
2023-02-19T21:40:12.771Z,102995.13
2023-02-19T21:42:40.727Z,102992.50
2023-02-19T21:45:09.676Z,102996.22
2023-02-19T21:47:40.381Z,102997.28
2023-02-19T21:50:11.445Z,103006.34
2023-02-19T21:52:47.636Z,103001.25
2023-02-19T21:56:22.453Z,102994.66
2023-02-19T21:58:50.451Z,102985.72
2023-02-19T22:01:20.978Z,102991.13
2023-02-19T22:03:53.510Z,102995.56
2023-02-19T22:06:26.907Z,102982.47
2023-02-19T22:08:56.348Z,102973.38
2023-02-19T22:11:24.288Z,102981.28
2023-02-19T22:13:55.492Z,102976.56
2023-02-19T22:16:24.906Z,102981.78
2023-02-19T22:18:53.618Z,102978.84
2023-02-19T22:21:24.261Z,102981.13
2023-02-19T22:23:53.960Z,102970.41
2023-02-19T22:26:22.286Z,102960.94
2023-02-19T22:28:50.237Z,102979.16
2023-02-19T22:31:18.626Z,102978.00
2023-02-19T22:33:46.999Z,102971.75
2023-02-19T22:36:18.278Z,102975.28
2023-02-19T22:38:50.063Z,102968.16
2023-02-19T22:41:18.757Z,102963.03
2023-02-19T22:43:46.825Z,102968.81
2023-02-19T22:46:16.795Z,102961.34
2023-02-19T22:48:49.736Z,102959.25
2023-02-19T22:51:20.086Z,102967.53
2023-02-19T22:53:55.061Z,102944.00
2023-02-19T22:56:26.883Z,102962.91
2023-02-19T22:58:55.921Z,102963.84
2023-02-19T23:01:27.403Z,102969.16
2023-02-19T23:03:58.730Z,102960.63
2023-02-19T23:06:28.093Z,102949.28
2023-02-19T23:08:58.327Z,102950.88
2023-02-19T23:11:29.943Z,102944.88
2023-02-19T23:13:58.339Z,102952.75
2023-02-19T23:16:26.460Z,102958.75
2023-02-19T23:18:54.763Z,102954.38
2023-02-19T23:21:23.172Z,102957.03
2023-02-19T23:23:51.189Z,102958.75
2023-02-19T23:26:21.254Z,102956.75
2023-02-19T23:28:49.311Z,102946.81
2023-02-19T23:31:20.146Z,102938.25
2023-02-19T23:33:48.325Z,102933.22
2023-02-19T23:36:17.068Z,102930.28
2023-02-19T23:38:46.407Z,102931.81
2023-02-19T23:41:15.305Z,102936.28
2023-02-19T23:43:44.779Z,102937.22
2023-02-19T23:46:17.405Z,102944.31
2023-02-19T23:48:46.066Z,102932.00
2023-02-19T23:51:16.553Z,102944.31
2023-02-19T23:53:46.940Z,102933.72
2023-02-19T23:56:17.312Z,102912.84
2023-02-19T23:58:46.728Z,102930.59
